Time;durP1;ratioP1;P1;durP2;ratioP2;P2;SDS_P1;SDS_P2;PMS_P1;PMS_P2;Temp;Humidity;BMP_temperature;BMP_pressure;BME280_temperature;BME280_humidity;BME280_pressure;Samples;Min_cycle;Max_cycle;Signal;HPM_P1;HPM_P2
2023/08/12 00:01:50;;;;;;;2.78;1.70;;;25.70;61.80;;;;;;5062103;28;20025;-63
2023/08/12 00:04:16;;;;;;;2.53;1.52;;;25.70;61.90;;;;;;5060504;28;20032;-63
2023/08/12 00:06:43;;;;;;;2.83;1.70;;;25.70;61.90;;;;;;5064743;28;20115;-62
2023/08/12 00:09:11;;;;;;;2.88;1.70;;;25.70;61.90;;;;;;5066184;28;20292;-63
2023/08/12 00:11:38;;;;;;;3.17;1.70;;;25.70;61.80;;;;;;5064290;28;20274;-63
2023/08/12 00:14:04;;;;;;;2.65;1.83;;;25.70;61.90;;;;;;5061915;28;20460;-64
2023/08/12 00:16:30;;;;;;;2.28;1.70;;;25.70;61.90;;;;;;5060705;28;20298;-62
2023/08/12 00:18:56;;;;;;;2.78;1.70;;;25.70;61.90;;;;;;5065958;28;20033;-65
2023/08/12 00:21:22;;;;;;;2.35;1.60;;;25.70;61.90;;;;;;5063701;28;20020;-62
2023/08/12 00:23:49;;;;;;;2.58;1.73;;;25.70;61.90;;;;;;5076040;28;20040;-64
2023/08/12 00:26:15;;;;;;;2.72;1.30;;;25.70;61.90;;;;;;5069629;28;20423;-64
2023/08/12 00:28:41;;;;;;;3.10;1.90;;;25.70;61.90;;;;;;5073439;28;20032;-62
2023/08/12 00:31:07;;;;;;;2.03;1.60;;;25.70;61.90;;;;;;5065378;28;21566;-63
2023/08/12 00:33:33;;;;;;;2.38;1.83;;;25.70;61.90;;;;;;5078501;28;20307;-63
2023/08/12 00:35:59;;;;;;;3.53;2.00;;;25.70;61.90;;;;;;5050326;28;20313;-62
2023/08/12 00:38:28;;;;;;;2.67;1.70;;;25.70;62.00;;;;;;5074999;28;20098;-64
2023/08/12 00:40:53;;;;;;;2.20;1.40;;;25.70;62.00;;;;;;5048530;28;20395;-62
2023/08/12 00:43:19;;;;;;;2.63;1.58;;;25.70;62.00;;;;;;5066597;28;20117;-63
2023/08/12 00:45:46;;;;;;;3.60;1.60;;;25.70;62.00;;;;;;5068364;28;20087;-64
2023/08/12 00:48:12;;;;;;;2.42;1.70;;;25.70;62.10;;;;;;5072814;28;20025;-63
2023/08/12 00:50:40;;;;;;;3.00;1.80;;;25.70;62.10;;;;;;5058451;28;20388;-64
2023/08/12 00:53:06;;;;;;;2.67;1.55;;;25.70;62.10;;;;;;5053359;28;20074;-64
2023/08/12 00:55:33;;;;;;;2.67;1.65;;;25.60;62.00;;;;;;5063670;28;20136;-64
2023/08/12 00:57:59;;;;;;;2.55;1.70;;;25.60;62.00;;;;;;5044804;28;20074;-63
2023/08/12 01:00:25;;;;;;;2.78;1.77;;;25.70;62.20;;;;;;5055796;28;20028;-64
2023/08/12 01:02:52;;;;;;;3.15;1.73;;;25.60;62.10;;;;;;5047579;28;20039;-64
2023/08/12 01:05:20;;;;;;;4.18;2.03;;;25.70;62.20;;;;;;5067339;28;20046;-62
2023/08/12 01:07:46;;;;;;;3.28;2.00;;;25.60;62.20;;;;;;5045526;28;20028;-63
2023/08/12 01:10:16;;;;;;;3.53;1.70;;;25.70;62.90;;;;;;5058927;28;20412;-64
2023/08/12 01:13:01;;;;;;;2.83;1.70;;;25.70;62.30;;;;;;5043093;28;20028;-62
2023/08/12 01:15:28;;;;;;;3.53;2.17;;;25.60;62.30;;;;;;5059157;28;20033;-62
2023/08/12 01:17:55;;;;;;;2.17;1.73;;;25.60;62.30;;;;;;5062386;28;20108;-63
2023/08/12 01:20:24;;;;;;;3.15;2.00;;;25.60;62.30;;;;;;5065179;28;20119;-63
2023/08/12 01:22:57;;;;;;;3.70;2.20;;;25.60;62.30;;;;;;5044099;28;20538;-62
2023/08/12 01:25:25;;;;;;;2.55;2.00;;;25.60;62.30;;;;;;5074179;28;20044;-62
2023/08/12 01:27:51;;;;;;;2.55;1.98;;;25.60;62.40;;;;;;5043832;28;20028;-62
2023/08/12 01:30:19;;;;;;;3.03;1.83;;;25.60;62.50;;;;;;5047534;28;20093;-63
2023/08/12 01:33:13;;;;;;;3.50;2.05;;;25.60;62.50;;;;;;5054203;28;20463;-62
2023/08/12 01:35:44;;;;;;;2.72;1.80;;;25.60;62.50;;;;;;5061299;28;20490;-63
2023/08/12 01:38:11;;;;;;;4.30;2.28;;;25.60;62.50;;;;;;5060398;28;20028;-63
2023/08/12 01:40:40;;;;;;;2.85;1.80;;;25.60;62.60;;;;;;5064640;28;20036;-66
2023/08/12 01:43:08;;;;;;;3.33;2.00;;;25.60;62.60;;;;;;5039087;28;20029;-66
2023/08/12 01:45:35;;;;;;;3.92;2.40;;;25.60;62.60;;;;;;5064123;28;20041;-63
2023/08/12 01:48:01;;;;;;;4.15;2.20;;;25.60;62.70;;;;;;5063819;28;20406;-62
2023/08/12 01:50:27;;;;;;;3.35;2.22;;;25.60;63.30;;;;;;5066439;28;20446;-62
2023/08/12 01:52:53;;;;;;;3.85;2.25;;;25.60;62.70;;;;;;5069180;28;20103;-64
2023/08/12 01:55:19;;;;;;;3.67;2.35;;;25.60;62.70;;;;;;5042492;28;20427;-62
2023/08/12 01:57:45;;;;;;;3.88;2.60;;;25.60;62.80;;;;;;5046081;28;20123;-64
2023/08/12 02:00:11;;;;;;;2.83;2.05;;;25.60;62.80;;;;;;5032434;28;20338;-62
2023/08/12 02:02:46;;;;;;;3.53;2.55;;;25.60;62.80;;;;;;5039819;28;20424;-63
2023/08/12 02:05:12;;;;;;;5.78;2.13;;;25.60;62.90;;;;;;5044848;28;20427;-62
2023/08/12 02:07:38;;;;;;;4.00;2.42;;;25.60;62.90;;;;;;5049585;28;20055;-63
2023/08/12 02:10:05;;;;;;;2.63;1.98;;;25.60;62.90;;;;;;5067056;28;20032;-62
2023/08/12 02:12:31;;;;;;;3.60;2.40;;;25.60;62.90;;;;;;5057166;28;20097;-62
2023/08/12 02:14:57;;;;;;;3.35;2.05;;;25.60;63.00;;;;;;5064881;28;20058;-64
2023/08/12 02:17:23;;;;;;;3.85;2.33;;;25.60;63.00;;;;;;5041978;28;20024;-63
2023/08/12 02:19:51;;;;;;;3.25;2.20;;;25.60;63.00;;;;;;5064685;28;20478;-63
2023/08/12 02:22:17;;;;;;;2.50;2.30;;;25.60;63.00;;;;;;5063738;28;20020;-66
2023/08/12 02:24:43;;;;;;;3.78;2.58;;;25.60;63.00;;;;;;5039200;28;20379;-63
2023/08/12 02:27:09;;;;;;;4.00;2.50;;;25.60;63.10;;;;;;5065956;28;20402;-64
2023/08/12 02:29:34;;;;;;;2.90;2.20;;;25.60;63.10;;;;;;5072614;28;20297;-63
2023/08/12 02:32:01;;;;;;;2.83;2.13;;;25.60;63.10;;;;;;5043470;28;20139;-64
2023/08/12 02:34:28;;;;;;;3.38;2.42;;;25.60;63.10;;;;;;5067291;28;20041;-63
2023/08/12 02:36:54;;;;;;;3.35;2.40;;;25.60;63.10;;;;;;5048698;28;20025;-63
2023/08/12 02:39:20;;;;;;;3.78;2.30;;;25.50;63.10;;;;;;5050014;28;20111;-61
2023/08/12 02:41:46;;;;;;;4.18;2.50;;;25.60;63.20;;;;;;5075757;28;20317;-62
2023/08/12 02:44:12;;;;;;;3.63;2.30;;;25.50;63.10;;;;;;5053767;28;20085;-64
2023/08/12 02:46:38;;;;;;;3.53;2.30;;;25.50;63.10;;;;;;5070448;28;20045;-65
2023/08/12 02:49:04;;;;;;;2.88;2.28;;;25.60;63.20;;;;;;5066754;28;20051;-63
2023/08/12 02:51:30;;;;;;;3.60;2.30;;;25.50;63.20;;;;;;5068782;28;20110;-64
2023/08/12 02:53:55;;;;;;;3.20;2.88;;;25.50;63.20;;;;;;5044463;28;20040;-63
2023/08/12 02:56:21;;;;;;;2.70;2.47;;;25.50;63.20;;;;;;5043097;28;20373;-62
2023/08/12 02:58:47;;;;;;;3.55;2.90;;;25.60;63.30;;;;;;5046365;28;20029;-62
2023/08/12 03:01:13;;;;;;;4.00;2.65;;;25.60;63.40;;;;;;5048578;28;20035;-62
2023/08/12 03:03:39;;;;;;;5.15;2.67;;;25.50;63.30;;;;;;5060365;28;20096;-62
2023/08/12 03:06:05;;;;;;;3.20;2.67;;;25.50;63.40;;;;;;5062699;28;20028;-62
2023/08/12 03:08:31;;;;;;;4.63;2.65;;;25.50;63.40;;;;;;5050804;28;20025;-63
2023/08/12 03:11:04;;;;;;;3.95;2.90;;;25.50;64.10;;;;;;5049407;28;20040;-64
2023/08/12 03:13:30;;;;;;;4.07;2.87;;;25.50;63.40;;;;;;5041685;28;20035;-63
2023/08/12 03:15:57;;;;;;;3.63;3.00;;;25.50;63.50;;;;;;5042311;28;20369;-63
2023/08/12 03:18:23;;;;;;;3.75;2.60;;;25.50;63.50;;;;;;5049748;28;20047;-64
2023/08/12 03:20:50;;;;;;;3.50;2.75;;;25.50;63.50;;;;;;5047244;28;20067;-62
2023/08/12 03:23:16;;;;;;;5.22;3.20;;;25.50;63.60;;;;;;5050403;28;20043;-64
2023/08/12 03:25:43;;;;;;;5.07;3.25;;;25.50;63.60;;;;;;5063043;28;20036;-62
2023/08/12 03:28:09;;;;;;;4.32;2.80;;;25.50;63.60;;;;;;5070140;28;20146;-64
2023/08/12 03:30:35;;;;;;;3.53;2.70;;;25.50;63.60;;;;;;5052223;28;20376;-62
2023/08/12 03:33:02;;;;;;;3.30;2.88;;;25.50;63.60;;;;;;5063652;28;20048;-63
2023/08/12 03:35:31;;;;;;;4.45;2.72;;;25.50;63.60;;;;;;5041436;28;20134;-62
2023/08/12 03:37:57;;;;;;;3.60;2.72;;;25.50;63.70;;;;;;5050730;28;20446;-63
2023/08/12 03:40:24;;;;;;;4.32;3.03;;;25.50;63.70;;;;;;5046003;28;20502;-64
2023/08/12 03:42:50;;;;;;;4.25;3.05;;;25.50;63.70;;;;;;5043097;28;20142;-63
2023/08/12 03:45:18;;;;;;;4.50;3.00;;;25.50;63.80;;;;;;5037406;28;20017;-62
2023/08/12 03:47:46;;;;;;;4.85;3.00;;;25.50;63.80;;;;;;5045379;28;20355;-64
2023/08/12 03:50:12;;;;;;;5.05;2.97;;;25.50;63.80;;;;;;5051695;28;20460;-64
2023/08/12 03:52:38;;;;;;;3.55;2.60;;;25.50;63.80;;;;;;5058762;28;20119;-64
2023/08/12 03:55:04;;;;;;;3.70;3.05;;;25.50;63.80;;;;;;5048940;28;20077;-63
2023/08/12 03:57:31;;;;;;;3.08;2.60;;;25.50;63.80;;;;;;5044143;28;20025;-64
2023/08/12 03:59:58;;;;;;;4.80;3.00;;;25.50;63.80;;;;;;5038263;28;20025;-64
2023/08/12 04:02:23;;;;;;;3.28;2.75;;;25.50;63.80;;;;;;5070110;28;20037;-63
2023/08/12 04:04:49;;;;;;;3.78;2.67;;;25.50;63.90;;;;;;5053640;28;20446;-63
2023/08/12 04:07:15;;;;;;;4.38;3.28;;;25.50;63.90;;;;;;5041825;28;20021;-64
2023/08/12 04:09:41;;;;;;;4.15;3.05;;;25.50;63.90;;;;;;5054229;28;20025;-65
2023/08/12 04:12:07;;;;;;;3.47;3.10;;;25.50;64.00;;;;;;5061034;28;20123;-64
2023/08/12 04:14:33;;;;;;;4.30;2.58;;;25.50;63.90;;;;;;5038278;28;20048;-64
2023/08/12 04:16:59;;;;;;;4.15;3.03;;;25.50;63.90;;;;;;5040411;28;20037;-63
2023/08/12 04:19:25;;;;;;;3.80;2.97;;;25.50;64.00;;;;;;5047332;28;20022;-62
2023/08/12 04:21:51;;;;;;;3.53;3.22;;;25.50;64.00;;;;;;5053559;28;20025;-63
2023/08/12 04:24:17;;;;;;;4.03;3.05;;;25.50;64.00;;;;;;5064837;28;20076;-64
2023/08/12 04:26:43;;;;;;;3.67;2.90;;;25.40;63.90;;;;;;5067170;28;20036;-62
2023/08/12 04:29:09;;;;;;;4.13;2.88;;;25.50;64.00;;;;;;5062984;28;20400;-63
2023/08/12 04:31:38;;;;;;;4.50;3.35;;;25.50;64.00;;;;;;5057627;28;20312;-63
2023/08/12 04:34:04;;;;;;;3.90;3.10;;;25.50;64.10;;;;;;5059765;28;20025;-62
2023/08/12 04:36:31;;;;;;;3.45;2.65;;;25.50;64.10;;;;;;5065677;28;20023;-64
2023/08/12 04:39:01;;;;;;;2.92;2.50;;;25.50;64.10;;;;;;5064553;28;20107;-64
2023/08/12 04:41:27;;;;;;;4.03;2.90;;;25.50;64.10;;;;;;5062313;28;20028;-62
2023/08/12 04:43:54;;;;;;;3.17;2.70;;;25.50;64.10;;;;;;5049446;28;20182;-63
2023/08/12 04:46:24;;;;;;;3.03;2.60;;;25.50;64.10;;;;;;5064371;28;20045;-64
2023/08/12 04:48:51;;;;;;;2.65;2.22;;;25.50;64.10;;;;;;5059311;28;20119;-63
2023/08/12 04:51:17;;;;;;;3.35;2.63;;;25.40;64.10;;;;;;5064605;28;20538;-64
2023/08/12 04:53:42;;;;;;;4.15;2.80;;;25.40;64.10;;;;;;5055984;28;20332;-63
2023/08/12 04:56:09;;;;;;;3.22;2.40;;;25.50;64.30;;;;;;5039214;28;20032;-64
2023/08/12 04:58:35;;;;;;;5.85;2.88;;;25.50;64.20;;;;;;5053193;28;20316;-63
2023/08/12 05:01:02;;;;;;;2.95;2.58;;;25.50;64.20;;;;;;5056617;28;20036;-63
2023/08/12 05:03:29;;;;;;;3.35;2.47;;;25.50;64.20;;;;;;5048364;28;20021;-62
2023/08/12 05:05:56;;;;;;;4.30;2.65;;;25.50;64.20;;;;;;5038794;28;20040;-67
2023/08/12 05:08:25;;;;;;;3.75;2.70;;;25.50;64.20;;;;;;5053896;28;20025;-62
2023/08/12 05:10:52;;;;;;;3.78;2.88;;;25.50;64.40;;;;;;5052885;28;20553;-66
2023/08/12 05:13:19;;;;;;;3.88;2.80;;;25.50;64.40;;;;;;5052735;28;20037;-65
2023/08/12 05:15:47;;;;;;;3.38;2.60;;;25.50;64.50;;;;;;5045535;28;20074;-62
2023/08/12 05:18:15;;;;;;;2.95;2.50;;;25.50;64.50;;;;;;5065279;28;20128;-62
2023/08/12 05:20:41;;;;;;;4.85;2.78;;;25.50;64.50;;;;;;5039467;28;20368;-62
2023/08/12 05:23:08;;;;;;;3.35;2.67;;;25.50;64.50;;;;;;5045058;28;20036;-63
2023/08/12 05:25:34;;;;;;;3.95;2.95;;;25.50;64.50;;;;;;5064961;28;20355;-63
2023/08/12 05:28:00;;;;;;;3.13;2.72;;;25.50;64.60;;;;;;5064315;28;20025;-61
2023/08/12 05:30:31;;;;;;;4.82;3.20;;;25.40;64.50;;;;;;5057964;28;20028;-64
2023/08/12 05:32:57;;;;;;;3.40;2.72;;;25.40;64.50;;;;;;5059621;28;20020;-63
2023/08/12 05:35:24;;;;;;;3.40;2.65;;;25.50;64.60;;;;;;5064124;28;20041;-63
2023/08/12 05:37:50;;;;;;;2.75;2.28;;;25.50;64.60;;;;;;5061870;28;20024;-62
2023/08/12 05:40:16;;;;;;;3.90;2.95;;;25.50;64.60;;;;;;5059045;28;20107;-61
2023/08/12 05:42:42;;;;;;;3.97;2.72;;;25.50;64.60;;;;;;5062150;28;20032;-63
2023/08/12 05:45:08;;;;;;;2.97;2.53;;;25.50;64.70;;;;;;5063892;28;20123;-63
2023/08/12 05:47:34;;;;;;;3.13;2.50;;;25.50;64.70;;;;;;5059688;28;20040;-61
2023/08/12 05:50:00;;;;;;;4.53;2.70;;;25.50;64.80;;;;;;5063788;28;20047;-65
2023/08/12 05:52:26;;;;;;;3.67;2.75;;;25.50;64.80;;;;;;5061268;28;20032;-64
2023/08/12 05:54:52;;;;;;;2.97;2.60;;;25.40;64.70;;;;;;5060518;28;20040;-63
2023/08/12 05:57:18;;;;;;;4.55;3.30;;;25.50;64.80;;;;;;5064408;28;20039;-64
2023/08/12 05:59:44;;;;;;;4.60;2.90;;;25.50;64.80;;;;;;5063622;28;20085;-64
2023/08/12 06:02:10;;;;;;;3.15;2.65;;;25.50;64.80;;;;;;5062589;28;20029;-63
2023/08/12 06:04:36;;;;;;;3.35;2.50;;;25.50;64.80;;;;;;5061961;28;20082;-62
2023/08/12 06:07:02;;;;;;;3.88;2.58;;;25.50;64.80;;;;;;5057471;28;20143;-64
2023/08/12 06:09:31;;;;;;;2.78;2.28;;;25.50;64.80;;;;;;5055998;28;20092;-69
2023/08/12 06:11:57;;;;;;;3.05;2.40;;;25.50;64.80;;;;;;5058236;28;20080;-63
2023/08/12 06:14:23;;;;;;;3.03;2.60;;;25.50;64.80;;;;;;5062291;28;20068;-63
2023/08/12 06:16:49;;;;;;;2.78;2.28;;;25.50;64.90;;;;;;5058795;28;20040;-65
2023/08/12 06:19:15;;;;;;;4.40;2.40;;;25.50;64.80;;;;;;5055497;28;20104;-63
2023/08/12 06:21:40;;;;;;;2.67;2.47;;;25.50;64.80;;;;;;5056927;28;20057;-62
2023/08/12 06:24:07;;;;;;;3.10;2.53;;;25.40;64.70;;;;;;5043979;28;20066;-65
2023/08/12 06:26:33;;;;;;;2.25;2.05;;;25.50;64.70;;;;;;5062766;28;20028;-63
2023/08/12 06:28:58;;;;;;;3.38;2.30;;;25.40;65.30;;;;;;5056134;28;20327;-66
2023/08/12 06:31:24;;;;;;;3.15;2.13;;;25.50;64.70;;;;;;5051587;28;20052;-64
2023/08/12 06:33:50;;;;;;;2.28;1.90;;;25.50;64.70;;;;;;5043153;28;20028;-63
2023/08/12 06:36:16;;;;;;;3.05;2.20;;;25.50;64.70;;;;;;5052175;28;20025;-63
2023/08/12 06:38:42;;;;;;;3.58;2.15;;;25.50;64.60;;;;;;5044864;28;20029;-68
2023/08/12 06:41:08;;;;;;;2.60;2.10;;;25.40;64.50;;;;;;5042779;28;20045;-64
2023/08/12 06:43:34;;;;;;;3.00;2.00;;;25.40;64.50;;;;;;5052959;28;20051;-66
2023/08/12 06:46:00;;;;;;;3.13;1.63;;;25.50;64.40;;;;;;5052547;28;20113;-64
2023/08/12 06:48:26;;;;;;;1.98;1.40;;;25.50;64.40;;;;;;5062654;28;20443;-63
2023/08/12 06:50:56;;;;;;;3.25;2.03;;;25.50;64.30;;;;;;5063589;28;20115;-64
2023/08/12 06:53:22;;;;;;;2.30;1.35;;;25.50;64.20;;;;;;5060149;28;20028;-64
2023/08/12 06:55:49;;;;;;;2.13;1.52;;;25.40;64.10;;;;;;5065457;28;20055;-64
2023/08/12 06:58:15;;;;;;;3.67;2.08;;;25.40;64.00;;;;;;5047280;28;20387;-65
2023/08/12 07:00:42;;;;;;;2.10;1.83;;;25.50;64.00;;;;;;5055814;28;20108;-65
2023/08/12 07:03:08;;;;;;;2.53;1.40;;;25.40;63.80;;;;;;5058361;28;20029;-64
2023/08/12 07:05:34;;;;;;;1.85;1.63;;;25.40;63.80;;;;;;5055405;28;20305;-64
2023/08/12 07:08:00;;;;;;;2.97;1.70;;;25.50;63.90;;;;;;5060489;28;20034;-64
2023/08/12 07:10:26;;;;;;;3.05;1.77;;;25.50;63.80;;;;;;5065356;28;20054;-65
2023/08/12 07:12:52;;;;;;;2.97;1.73;;;25.50;63.80;;;;;;5058021;28;20148;-64
2023/08/12 07:15:18;;;;;;;2.50;1.60;;;25.50;63.80;;;;;;5062654;28;20029;-63
2023/08/12 07:17:44;;;;;;;2.75;1.95;;;25.50;63.80;;;;;;5059421;28;20033;-65
2023/08/12 07:20:10;;;;;;;3.90;1.70;;;25.50;63.80;;;;;;5050586;28;20037;-67
2023/08/12 07:22:36;;;;;;;2.20;1.60;;;25.50;63.90;;;;;;5063967;28;20042;-66
2023/08/12 07:25:02;;;;;;;2.17;1.70;;;25.50;64.20;;;;;;5067807;28;20012;-65
2023/08/12 07:27:28;;;;;;;2.83;1.80;;;25.50;64.20;;;;;;5063045;28;20038;-64
2023/08/12 07:29:54;;;;;;;2.67;1.77;;;25.50;64.20;;;;;;5063860;28;20150;-68
2023/08/12 07:32:21;;;;;;;2.92;1.67;;;25.50;64.20;;;;;;5074682;28;20119;-66
2023/08/12 07:34:46;;;;;;;3.92;1.88;;;25.50;64.80;;;;;;5061362;28;20082;-65
2023/08/12 07:37:12;;;;;;;2.15;1.67;;;25.50;64.10;;;;;;5072020;28;20427;-64
2023/08/12 07:39:38;;;;;;;4.10;2.00;;;25.50;64.10;;;;;;5066329;28;20117;-64
2023/08/12 07:42:04;;;;;;;3.05;2.08;;;25.50;64.10;;;;;;5064348;28;20450;-66
2023/08/12 07:44:30;;;;;;;3.00;1.90;;;25.50;64.10;;;;;;5061772;28;20029;-65
2023/08/12 07:46:56;;;;;;;2.13;1.85;;;25.50;64.10;;;;;;5067144;28;20158;-66
2023/08/12 07:49:22;;;;;;;3.65;1.90;;;25.50;64.10;;;;;;5079429;28;20060;-64
2023/08/12 07:51:48;;;;;;;2.47;2.05;;;25.50;64.00;;;;;;5063433;28;20035;-64
2023/08/12 07:54:14;;;;;;;2.13;1.67;;;25.50;64.10;;;;;;5044887;28;20211;-66
2023/08/12 07:56:40;;;;;;;4.65;1.75;;;25.50;64.00;;;;;;5065605;28;20417;-65
2023/08/12 07:59:06;;;;;;;1.92;1.60;;;25.50;64.00;;;;;;5094462;28;20059;-65
2023/08/12 08:01:32;;;;;;;2.75;1.65;;;25.50;64.00;;;;;;5092210;28;20370;-63
2023/08/12 08:03:58;;;;;;;2.55;2.03;;;25.50;64.00;;;;;;5076577;28;20092;-65
2023/08/12 08:06:24;;;;;;;2.15;1.60;;;25.50;64.00;;;;;;5068011;28;20039;-65
2023/08/12 08:08:50;;;;;;;1.65;1.55;;;25.50;63.90;;;;;;5063952;28;20032;-65
2023/08/12 08:11:16;;;;;;;2.72;1.80;;;25.50;63.90;;;;;;5074850;28;20035;-64
2023/08/12 08:13:42;;;;;;;2.80;1.60;;;25.50;63.90;;;;;;5083884;28;20028;-64
2023/08/12 08:16:07;;;;;;;2.20;1.45;;;25.50;63.90;;;;;;5086080;28;20193;-63
2023/08/12 08:18:33;;;;;;;2.58;1.60;;;25.50;63.90;;;;;;5077554;28;20021;-64
2023/08/12 08:20:59;;;;;;;1.83;1.40;;;25.50;63.90;;;;;;5082181;28;20038;-66
2023/08/12 08:23:25;;;;;;;1.70;1.30;;;25.50;63.90;;;;;;5080563;28;20020;-66
2023/08/12 08:25:51;;;;;;;1.92;1.35;;;25.50;63.90;;;;;;5087838;28;20039;-64
2023/08/12 08:28:17;;;;;;;2.45;1.40;;;25.50;63.90;;;;;;5084358;28;20095;-66
2023/08/12 08:30:43;;;;;;;1.30;1.20;;;25.50;63.90;;;;;;5083933;28;20633;-67
2023/08/12 08:33:09;;;;;;;2.53;1.17;;;25.50;63.90;;;;;;5077314;28;20452;-64
2023/08/12 08:35:35;;;;;;;1.52;1.27;;;25.50;64.00;;;;;;5081167;28;20020;-64
2023/08/12 08:38:01;;;;;;;2.85;1.40;;;25.50;63.90;;;;;;5082041;28;20050;-65
2023/08/12 08:40:27;;;;;;;1.38;1.13;;;25.50;64.00;;;;;;5083178;28;20419;-63
2023/08/12 08:42:53;;;;;;;2.65;1.20;;;25.50;64.00;;;;;;5075421;28;20110;-64
2023/08/12 08:45:23;;;;;;;1.67;1.30;;;25.50;64.00;;;;;;5082569;28;20104;-65
2023/08/12 08:47:52;;;;;;;1.55;1.25;;;25.50;64.00;;;;;;5068052;28;20941;-66
2023/08/12 08:50:18;;;;;;;1.83;1.33;;;25.50;64.10;;;;;;5083203;28;20047;-65
2023/08/12 08:52:44;;;;;;;1.15;1.02;;;25.50;64.10;;;;;;5081918;28;20051;-64
2023/08/12 08:55:11;;;;;;;1.20;0.98;;;25.50;64.10;;;;;;5083618;28;20033;-68
2023/08/12 08:57:39;;;;;;;2.05;1.25;;;25.50;64.20;;;;;;5082229;28;20024;-67
2023/08/12 09:00:10;;;;;;;1.27;0.90;;;25.50;64.20;;;;;;5086799;28;20134;-63
2023/08/12 09:02:37;;;;;;;0.85;0.77;;;25.50;64.20;;;;;;5081545;28;20024;-65
2023/08/12 09:05:04;;;;;;;1.00;0.90;;;25.50;64.30;;;;;;5082088;28;20028;-65
2023/08/12 09:07:31;;;;;;;1.10;0.98;;;25.50;64.30;;;;;;5076124;28;20374;-64
2023/08/12 09:10:00;;;;;;;1.17;0.90;;;25.50;64.40;;;;;;5078894;28;20024;-64
2023/08/12 09:12:27;;;;;;;1.30;0.98;;;25.50;64.30;;;;;;5079260;28;20027;-64
2023/08/12 09:14:53;;;;;;;1.38;1.00;;;25.50;64.40;;;;;;5079748;28;20083;-65
2023/08/12 09:17:19;;;;;;;1.33;0.80;;;25.50;64.50;;;;;;5075183;28;20033;-65
2023/08/12 09:19:45;;;;;;;0.80;0.77;;;25.50;64.50;;;;;;5071477;28;20040;-66
2023/08/12 09:22:11;;;;;;;1.00;0.90;;;25.50;64.50;;;;;;5070860;28;20410;-66
2023/08/12 09:24:38;;;;;;;1.70;1.10;;;25.60;64.60;;;;;;5072780;28;20017;-65
2023/08/12 09:27:04;;;;;;;0.75;0.65;;;25.50;64.60;;;;;;5051284;28;20021;-66
2023/08/12 09:29:34;;;;;;;0.90;0.65;;;25.50;64.80;;;;;;5070085;28;20394;-65
2023/08/12 09:32:13;;;;;;;1.10;1.00;;;25.60;65.10;;;;;;5086780;28;20046;-65
2023/08/12 09:34:49;;;;;;;0.77;0.70;;;25.60;65.40;;;;;;5070557;28;20064;-62
2023/08/12 09:37:15;;;;;;;0.63;0.50;;;25.60;65.50;;;;;;5039938;28;20044;-65
2023/08/12 09:39:42;;;;;;;0.93;0.70;;;25.60;66.20;;;;;;5063072;28;20044;-65
2023/08/12 09:42:09;;;;;;;0.88;0.68;;;25.60;65.50;;;;;;5064032;28;20028;-64
2023/08/12 09:44:36;;;;;;;0.80;0.70;;;25.60;65.40;;;;;;5063982;28;20052;-64
2023/08/12 09:47:03;;;;;;;0.77;0.70;;;25.60;65.30;;;;;;5059138;28;20054;-64
2023/08/12 09:49:29;;;;;;;0.80;0.50;;;25.60;65.20;;;;;;5063472;28;20071;-63
2023/08/12 09:51:56;;;;;;;0.77;0.68;;;25.60;65.20;;;;;;5063816;28;20039;-63
2023/08/12 09:54:25;;;;;;;2.67;0.70;;;25.60;65.10;;;;;;5070194;28;20027;-62
2023/08/12 09:56:56;;;;;;;1.50;0.70;;;25.60;65.10;;;;;;5061228;28;20178;-62
2023/08/12 09:59:23;;;;;;;0.70;0.68;;;25.70;65.00;;;;;;5065015;28;20047;-62
2023/08/12 10:01:52;;;;;;;1.67;0.90;;;25.70;65.00;;;;;;5071746;28;20044;-63
2023/08/12 10:04:22;;;;;;;1.70;0.60;;;25.70;64.80;;;;;;5053925;28;20040;-64
2023/08/12 10:06:49;;;;;;;1.30;0.90;;;25.70;64.80;;;;;;5073224;28;20032;-64
2023/08/12 10:09:19;;;;;;;1.17;0.70;;;25.80;64.80;;;;;;5052935;28;20404;-63
2023/08/12 10:11:46;;;;;;;1.95;0.80;;;25.80;64.70;;;;;;5059810;28;20059;-61
2023/08/12 10:14:13;;;;;;;1.05;0.60;;;25.80;64.70;;;;;;5059282;28;20416;-64
2023/08/12 10:16:41;;;;;;;1.58;0.77;;;25.80;64.60;;;;;;5054015;28;20021;-64
2023/08/12 10:19:11;;;;;;;0.95;0.70;;;25.80;64.50;;;;;;5088746;28;20101;-63
2023/08/12 10:21:38;;;;;;;0.82;0.52;;;25.80;64.50;;;;;;5091873;28;20036;-63
2023/08/12 10:24:05;;;;;;;1.27;0.52;;;25.80;64.50;;;;;;5073727;28;20086;-64
2023/08/12 10:26:32;;;;;;;1.52;0.60;;;25.80;64.50;;;;;;5091652;28;20127;-62
2023/08/12 10:28:59;;;;;;;0.85;0.60;;;25.90;64.60;;;;;;5091712;28;20440;-64
2023/08/12 10:31:28;;;;;;;0.63;0.52;;;25.90;64.60;;;;;;5073692;28;20315;-63
2023/08/12 10:33:54;;;;;;;1.10;0.70;;;25.90;64.60;;;;;;5089133;28;20137;-61
2023/08/12 10:36:21;;;;;;;0.50;0.50;;;25.90;64.60;;;;;;5091480;28;20425;-62
2023/08/12 10:38:47;;;;;;;0.77;0.50;;;25.90;64.50;;;;;;5091932;28;20035;-64
2023/08/12 10:41:21;;;;;;;1.02;0.60;;;25.90;64.40;;;;;;5091962;28;20139;-63
2023/08/12 10:44:03;;;;;;;0.40;0.40;;;25.90;64.30;;;;;;5091486;28;20036;-62
2023/08/12 10:46:33;;;;;;;1.05;0.65;;;26.00;64.20;;;;;;5091336;28;20080;-61
2023/08/12 10:49:07;;;;;;;0.60;0.60;;;25.90;64.00;;;;;;5072490;28;20040;-61
2023/08/12 10:51:41;;;;;;;1.30;0.70;;;26.00;63.90;;;;;;5053170;28;20146;-65
2023/08/12 10:54:16;;;;;;;0.73;0.55;;;25.90;63.70;;;;;;5071206;28;20032;-62
2023/08/12 10:57:11;;;;;;;0.60;0.60;;;26.00;63.60;;;;;;5052688;28;20040;-63
2023/08/12 10:59:46;;;;;;;0.82;0.73;;;26.00;63.40;;;;;;5030057;28;20136;-63
2023/08/12 11:02:36;;;;;;;1.38;0.85;;;26.00;63.30;;;;;;5069691;28;20040;-61
2023/08/12 11:05:08;;;;;;;1.05;0.70;;;26.00;63.00;;;;;;5055180;28;20083;-62
2023/08/12 11:07:37;;;;;;;0.88;0.65;;;25.90;62.90;;;;;;5070333;28;20127;-62
2023/08/12 11:10:18;;;;;;;1.35;0.70;;;26.00;62.80;;;;;;5077293;28;20028;-63
2023/08/12 11:13:03;;;;;;;1.17;0.75;;;25.90;62.60;;;;;;5094986;28;20462;-62
2023/08/12 11:15:31;;;;;;;1.75;0.85;;;26.00;62.60;;;;;;5095473;28;20043;-63
2023/08/12 11:17:56;;;;;;;1.35;0.80;;;26.00;62.60;;;;;;5090220;28;20082;-61
2023/08/12 11:20:23;;;;;;;0.80;0.70;;;26.00;62.50;;;;;;5094853;28;20142;-62
2023/08/12 11:22:50;;;;;;;1.02;0.68;;;26.00;62.30;;;;;;5076836;28;20043;-63
2023/08/12 11:25:16;;;;;;;1.15;0.82;;;26.00;62.20;;;;;;5090046;28;20339;-61
2023/08/12 11:27:47;;;;;;;1.10;0.70;;;26.00;61.90;;;;;;5095197;28;20038;-62
2023/08/12 11:30:19;;;;;;;1.23;0.55;;;26.00;61.60;;;;;;5089600;28;20070;-64
2023/08/12 11:32:46;;;;;;;1.05;0.70;;;26.00;61.30;;;;;;5079635;28;20108;-63
2023/08/12 11:35:14;;;;;;;2.17;0.85;;;26.00;61.00;;;;;;5091848;28;20191;-64
2023/08/12 11:37:42;;;;;;;1.08;0.70;;;26.00;60.70;;;;;;5094844;28;20028;-63
2023/08/12 11:40:09;;;;;;;1.10;0.70;;;26.00;60.40;;;;;;5074210;28;20024;-62
2023/08/12 11:42:40;;;;;;;1.05;0.68;;;26.00;60.00;;;;;;5074433;28;20105;-62
2023/08/12 11:45:07;;;;;;;1.52;0.80;;;26.00;59.80;;;;;;5074266;28;20467;-62
2023/08/12 11:47:37;;;;;;;1.27;0.55;;;26.00;59.50;;;;;;5074370;28;20338;-63
2023/08/12 11:50:07;;;;;;;0.88;0.60;;;26.00;59.30;;;;;;5074500;28;20087;-61
2023/08/12 11:52:35;;;;;;;1.77;0.60;;;26.00;59.10;;;;;;5074340;28;20038;-63
2023/08/12 11:55:01;;;;;;;1.27;0.80;;;26.00;58.80;;;;;;5090535;28;20062;-62
2023/08/12 11:57:28;;;;;;;1.85;0.93;;;26.10;58.60;;;;;;5093348;28;20036;-63
2023/08/12 12:00:08;;;;;;;1.15;0.75;;;26.10;58.40;;;;;;5092103;28;20341;-61
2023/08/12 12:02:53;;;;;;;1.45;0.70;;;26.10;58.10;;;;;;5094088;28;20101;-61
2023/08/12 12:05:22;;;;;;;2.58;0.70;;;26.10;57.90;;;;;;5076435;28;20238;-62
2023/08/12 12:07:49;;;;;;;1.90;0.90;;;26.10;57.80;;;;;;5089103;28;20028;-62
2023/08/12 12:10:19;;;;;;;2.63;1.20;;;26.10;57.70;;;;;;5094529;28;20099;-62
2023/08/12 12:12:45;;;;;;;1.02;0.60;;;26.10;57.50;;;;;;5074855;28;20028;-62
2023/08/12 12:15:15;;;;;;;1.48;0.57;;;26.10;57.40;;;;;;5094115;28;20082;-62
2023/08/12 12:17:40;;;;;;;2.10;0.80;;;26.10;57.30;;;;;;5081676;28;20084;-63
2023/08/12 12:20:10;;;;;;;2.08;0.80;;;26.20;57.30;;;;;;5091505;28;20439;-63
2023/08/12 12:22:36;;;;;;;1.40;0.75;;;26.20;57.10;;;;;;5075706;28;20115;-64
2023/08/12 12:25:07;;;;;;;1.20;0.70;;;26.10;56.90;;;;;;5087882;28;20037;-66
2023/08/12 12:27:34;;;;;;;1.50;0.80;;;26.20;56.90;;;;;;5063978;28;20032;-60
2023/08/12 12:30:00;;;;;;;1.13;0.88;;;26.20;56.80;;;;;;5047129;28;20029;-61
2023/08/12 12:32:27;;;;;;;3.90;1.10;;;26.20;57.00;;;;;;5066000;28;20033;-62
2023/08/12 12:34:54;;;;;;;4.13;1.08;;;26.20;57.10;;;;;;5071206;28;20116;-63
2023/08/12 12:37:20;;;;;;;4.03;0.70;;;26.20;57.10;;;;;;5070944;28;20064;-61
2023/08/12 12:39:46;;;;;;;2.42;0.90;;;26.30;57.00;;;;;;5068300;28;20039;-61
2023/08/12 12:42:12;;;;;;;2.45;1.00;;;26.30;56.90;;;;;;5063042;28;20016;-63
2023/08/12 12:44:38;;;;;;;3.45;0.98;;;26.30;56.70;;;;;;5063827;28;20033;-62
2023/08/12 12:47:04;;;;;;;1.20;0.70;;;26.30;56.50;;;;;;5042966;28;20123;-62
2023/08/12 12:49:30;;;;;;;2.08;1.10;;;26.30;56.30;;;;;;5060123;28;20025;-62